Time,TemperatureF,DewpointF,PressureIn,WindDirection,WindDirectionDegrees,WindSpeedMPH,WindSpeedGustMPH,Humidity,HourlyPrecipIn,Conditions,Clouds,dailyrainin,SoftwareType,DateUTC
2013-06-17 00:08:00,68.7,68.0,29.93,SW,215,0.0,0.0,98,0.00,,,0.00,weatherlink.com 1.10,2013-06-17 05:08:00,
2013-06-17 00:23:00,68.6,68.0,29.94,SW,215,0.0,0.0,98,0.00,,,0.00,weatherlink.com 1.10,2013-06-17 05:23:00,
2013-06-17 00:38:00,69.0,69.0,29.94,SW,215,0.0,0.0,98,0.00,,,0.00,weatherlink.com 1.10,2013-06-17 05:38:00,
2013-06-17 00:53:00,69.4,69.0,29.93,SW,214,0.0,0.0,98,0.00,,,0.00,weatherlink.com 1.10,2013-06-17 05:53:00,
2013-06-17 01:08:00,69.1,69.0,29.91,SW,215,1.0,1.0,98,0.00,,,0.00,weatherlink.com 1.10,2013-06-17 06:08:00,
2013-06-17 01:23:00,68.5,68.0,29.91,SW,215,0.0,0.0,98,0.00,,,0.00,weatherlink.com 1.10,2013-06-17 06:23:00,
2013-06-17 01:38:00,68.8,68.0,29.90,SW,215,0.0,0.0,98,0.00,,,0.00,weatherlink.com 1.10,2013-06-17 06:38:00,
2013-06-17 01:53:00,67.6,67.0,29.90,SW,215,0.0,0.0,98,0.00,,,0.00,weatherlink.com 1.10,2013-06-17 06:53:00,
2013-06-17 02:08:00,67.2,67.0,29.90,SW,215,0.0,0.0,98,0.00,,,0.00,weatherlink.com 1.10,2013-06-17 07:08:00,
2013-06-17 02:23:00,67.6,67.0,29.91,SW,215,0.0,0.0,99,0.00,,,0.00,weatherlink.com 1.10,2013-06-17 07:23:00,
2013-06-17 02:39:00,66.6,66.0,29.91,SW,215,0.0,0.0,98,0.00,,,0.00,weatherlink.com 1.10,2013-06-17 07:39:00,
2013-06-17 02:54:00,66.8,67.0,29.90,SW,215,0.0,1.0,99,0.00,,,0.00,weatherlink.com 1.10,2013-06-17 07:54:00,
2013-06-17 03:09:00,66.1,66.0,29.90,SW,215,0.0,0.0,98,0.00,,,0.00,weatherlink.com 1.10,2013-06-17 08:09:00,
2013-06-17 03:24:00,67.3,67.0,29.90,SW,215,0.0,0.0,99,0.00,,,0.00,weatherlink.com 1.10,2013-06-17 08:24:00,
2013-06-17 03:39:00,66.9,67.0,29.90,SW,215,1.0,2.0,99,0.00,,,0.00,weatherlink.com 1.10,2013-06-17 08:39:00,
2013-06-17 03:54:00,66.8,67.0,29.90,SW,215,0.0,1.0,99,0.00,,,0.00,weatherlink.com 1.10,2013-06-17 08:54:00,
2013-06-17 04:09:00,66.7,66.0,29.90,SW,215,0.0,0.0,99,0.00,,,0.00,weatherlink.com 1.10,2013-06-17 09:09:00,
2013-06-17 04:24:00,66.6,66.0,29.89,South,182,0.0,5.0,99,0.00,,,0.00,weatherlink.com 1.10,2013-06-17 09:24:00,
2013-06-17 04:39:00,66.4,66.0,29.89,South,183,0.0,0.0,99,0.00,,,0.00,weatherlink.com 1.10,2013-06-17 09:39:00,
2013-06-17 04:54:00,66.3,66.0,29.89,South,183,0.0,0.0,99,0.00,,,0.00,weatherlink.com 1.10,2013-06-17 09:54:00,
2013-06-17 05:09:00,64.3,64.0,29.90,South,183,0.0,0.0,98,0.00,,,0.00,weatherlink.com 1.10,2013-06-17 10:09:00,
2013-06-17 05:24:00,64.3,64.0,29.90,South,183,0.0,0.0,99,0.00,,,0.00,weatherlink.com 1.10,2013-06-17 10:24:00,
2013-06-17 05:39:00,64.3,64.0,29.90,South,183,0.0,0.0,99,0.00,,,0.00,weatherlink.com 1.10,2013-06-17 10:39:00,
2013-06-17 05:54:00,64.9,65.0,29.90,South,182,0.0,1.0,99,0.01,,,0.01,weatherlink.com 1.10,2013-06-17 10:54:00,
2013-06-17 06:09:00,65.7,65.0,29.90,South,182,0.0,1.0,99,0.01,,,0.01,weatherlink.com 1.10,2013-06-17 11:09:00,
2013-06-17 06:24:00,65.9,65.0,29.91,South,182,0.0,1.0,98,0.01,,,0.01,weatherlink.com 1.10,2013-06-17 11:24:00,
2013-06-17 06:39:00,65.9,65.0,29.91,South,181,0.0,1.0,98,0.01,,,0.01,weatherlink.com 1.10,2013-06-17 11:39:00,
2013-06-17 06:55:00,65.9,65.0,29.91,South,181,0.0,0.0,98,0.00,,,0.01,weatherlink.com 1.10,2013-06-17 11:55:00,
2013-06-17 07:09:00,65.8,65.0,29.91,South,182,0.0,1.0,98,0.00,,,0.01,weatherlink.com 1.10,2013-06-17 12:09:00,
2013-06-17 07:24:00,66.7,66.0,29.91,NE,51,0.0,2.0,99,0.00,,,0.01,weatherlink.com 1.10,2013-06-17 12:24:00,
2013-06-17 07:39:00,67.9,68.0,29.91,NE,51,1.0,1.0,99,0.00,,,0.01,weatherlink.com 1.10,2013-06-17 12:39:00,
2013-06-17 07:54:00,69.2,69.0,29.92,NE,51,0.0,1.0,99,0.00,,,0.01,weatherlink.com 1.10,2013-06-17 12:54:00,
2013-06-17 08:09:00,70.3,70.0,29.93,SW,225,1.0,2.0,98,0.00,,,0.01,weatherlink.com 1.10,2013-06-17 13:09:00,
2013-06-17 08:24:00,71.4,70.0,29.93,SW,226,1.0,3.0,95,0.00,,,0.01,weatherlink.com 1.10,2013-06-17 13:24:00,
2013-06-17 08:39:00,73.0,70.0,29.92,SSW,200,1.0,2.0,91,0.00,,,0.01,weatherlink.com 1.10,2013-06-17 13:39:00,
2013-06-17 08:54:00,74.2,71.0,29.93,SW,233,0.0,2.0,88,0.00,,,0.01,weatherlink.com 1.10,2013-06-17 13:54:00,
2013-06-17 09:09:00,76.9,71.0,29.92,NE,54,2.0,2.0,82,0.00,,,0.01,weatherlink.com 1.10,2013-06-17 14:09:00,
2013-06-17 09:24:00,78.3,71.0,29.92,ENE,61,0.0,2.0,79,0.00,,,0.01,weatherlink.com 1.10,2013-06-17 14:24:00,
2013-06-17 09:39:00,80.3,73.0,29.92,ENE,74,0.0,3.0,78,0.00,,,0.01,weatherlink.com 1.10,2013-06-17 14:39:00,
2013-06-17 09:54:00,80.7,71.0,29.91,East,82,2.0,3.0,71,0.00,,,0.01,weatherlink.com 1.10,2013-06-17 14:54:00,
2013-06-17 10:09:00,81.4,71.0,29.91,East,81,1.0,4.0,70,0.00,,,0.01,weatherlink.com 1.10,2013-06-17 15:09:00,
2013-06-17 10:24:00,80.7,69.0,29.91,East,81,1.0,3.0,67,0.00,,,0.01,weatherlink.com 1.10,2013-06-17 15:24:00,
2013-06-17 10:39:00,81.9,70.0,29.91,East,79,2.0,3.0,67,0.00,,,0.01,weatherlink.com 1.10,2013-06-17 15:39:00,
2013-06-17 10:55:00,81.9,68.0,29.91,ENE,58,4.0,4.0,63,0.00,,,0.01,weatherlink.com 1.10,2013-06-17 15:55:00,
2013-06-17 11:10:00,81.8,66.0,29.91,ENE,60,2.0,4.0,59,0.00,,,0.01,weatherlink.com 1.10,2013-06-17 16:10:00,
2013-06-17 11:25:00,81.8,69.0,29.91,ENE,76,4.0,5.0,65,0.00,,,0.01,weatherlink.com 1.10,2013-06-17 16:25:00,
2013-06-17 11:41:00,82.4,67.0,29.92,NE,56,2.0,5.0,59,0.00,,,0.01,weatherlink.com 1.10,2013-06-17 16:41:00,
2013-06-17 11:55:00,82.6,67.0,29.92,East,89,1.0,3.0,59,0.00,,,0.01,weatherlink.com 1.10,2013-06-17 16:55:00,
2013-06-17 12:10:00,83.9,67.0,29.92,ENE,65,3.0,3.0,58,0.00,,,0.01,weatherlink.com 1.10,2013-06-17 17:10:00,
2013-06-17 12:25:00,84.5,68.0,29.92,ENE,70,0.0,2.0,57,0.00,,,0.01,weatherlink.com 1.10,2013-06-17 17:25:00,
2013-06-17 12:40:00,86.7,69.0,29.92,SW,236,0.0,2.0,55,0.00,,,0.01,weatherlink.com 1.10,2013-06-17 17:40:00,
2013-06-17 12:55:00,86.2,68.0,29.92,ENE,57,2.0,3.0,54,0.00,,,0.01,weatherlink.com 1.10,2013-06-17 17:55:00,
2013-06-17 13:10:00,86.5,66.0,29.92,SSE,161,1.0,3.0,50,0.00,,,0.01,weatherlink.com 1.10,2013-06-17 18:10:00,
2013-06-17 13:25:00,85.9,66.0,29.92,West,278,2.0,2.0,52,0.00,,,0.01,weatherlink.com 1.10,2013-06-17 18:25:00,
2013-06-17 13:40:00,87.7,66.0,29.92,SSE,158,0.0,3.0,49,0.00,,,0.01,weatherlink.com 1.10,2013-06-17 18:40:00,
2013-06-17 13:55:00,86.2,65.0,29.91,East,81,1.0,1.0,50,0.00,,,0.01,weatherlink.com 1.10,2013-06-17 18:55:00,
2013-06-17 14:10:00,86.9,66.0,29.91,NE,53,1.0,2.0,50,0.00,,,0.01,weatherlink.com 1.10,2013-06-17 19:10:00,
2013-06-17 14:25:00,86.3,68.0,29.90,NNE,12,1.0,3.0,55,0.00,,,0.01,weatherlink.com 1.10,2013-06-17 19:25:00,
2013-06-17 14:40:00,86.1,71.0,29.89,West,269,0.0,2.0,60,0.00,,,0.01,weatherlink.com 1.10,2013-06-17 19:40:00,
2013-06-17 14:55:00,86.4,67.0,29.88,NE,53,3.0,3.0,52,0.00,,,0.01,weatherlink.com 1.10,2013-06-17 19:55:00,
2013-06-17 15:10:00,85.6,69.0,29.87,NE,48,0.0,2.0,58,0.00,,,0.01,weatherlink.com 1.10,2013-06-17 20:10:00,
2013-06-17 15:25:00,84.4,68.0,29.86,NNE,16,1.0,4.0,58,0.00,,,0.01,weatherlink.com 1.10,2013-06-17 20:25:00,
2013-06-17 15:40:00,84.3,68.0,29.86,ENE,70,1.0,4.0,59,0.00,,,0.01,weatherlink.com 1.10,2013-06-17 20:40:00,
2013-06-17 15:55:00,85.6,69.0,29.86,NNE,26,0.0,1.0,57,0.00,,,0.01,weatherlink.com 1.10,2013-06-17 20:55:00,
2013-06-17 16:10:00,86.7,70.0,29.86,NE,37,0.0,1.0,57,0.00,,,0.01,weatherlink.com 1.10,2013-06-17 21:10:00,
2013-06-17 16:25:00,86.5,71.0,29.86,NE,40,0.0,1.0,61,0.00,,,0.01,weatherlink.com 1.10,2013-06-17 21:25:00,
2013-06-17 16:40:00,86.5,69.0,29.87,NE,40,0.0,1.0,56,0.00,,,0.01,weatherlink.com 1.10,2013-06-17 21:40:00,
2013-06-17 16:55:00,86.6,71.0,29.87,NE,40,0.0,0.0,60,0.00,,,0.01,weatherlink.com 1.10,2013-06-17 21:55:00,
2013-06-17 17:10:00,86.3,68.0,29.87,NE,40,0.0,1.0,54,0.00,,,0.01,weatherlink.com 1.10,2013-06-17 22:10:00,
2013-06-17 17:25:00,87.1,69.0,29.87,NE,40,0.0,1.0,56,0.00,,,0.01,weatherlink.com 1.10,2013-06-17 22:25:00,
2013-06-17 17:40:00,87.5,70.0,29.87,North,7,2.0,2.0,57,0.00,,,0.01,weatherlink.com 1.10,2013-06-17 22:40:00,
2013-06-17 17:55:00,87.2,67.0,29.87,WSW,238,0.0,2.0,52,0.00,,,0.01,weatherlink.com 1.10,2013-06-17 22:55:00,
2013-06-17 18:10:00,86.9,69.0,29.87,WSW,238,0.0,1.0,55,0.00,,,0.01,weatherlink.com 1.10,2013-06-17 23:10:00,
2013-06-17 18:40:00,86.6,69.0,29.87,WSW,237,0.0,0.0,56,0.00,,,0.01,weatherlink.com 1.10,2013-06-17 23:40:00,
2013-06-17 18:55:00,84.8,71.0,29.87,WSW,238,0.0,1.0,64,0.00,,,0.01,weatherlink.com 1.10,2013-06-17 23:55:00,
2013-06-17 19:10:00,82.8,70.0,29.87,WSW,238,0.0,0.0,65,0.00,,,0.01,weatherlink.com 1.10,2013-06-18 00:10:00,
2013-06-17 19:25:00,81.7,71.0,29.86,WSW,237,0.0,0.0,71,0.00,,,0.01,weatherlink.com 1.10,2013-06-18 00:25:00,
2013-06-17 19:40:00,80.4,71.0,29.86,WSW,238,0.0,0.0,73,0.00,,,0.01,weatherlink.com 1.10,2013-06-18 00:40:00,
2013-06-17 19:55:00,79.1,71.0,29.86,WSW,237,0.0,0.0,75,0.00,,,0.01,weatherlink.com 1.10,2013-06-18 00:55:00,
2013-06-17 20:10:00,78.1,69.0,29.87,WSW,238,0.0,1.0,74,0.00,,,0.01,weatherlink.com 1.10,2013-06-18 01:10:00,
2013-06-17 20:25:00,76.7,70.0,29.87,WSW,238,0.0,0.0,79,0.00,,,0.01,weatherlink.com 1.10,2013-06-18 01:25:00,
2013-06-17 20:40:00,75.5,67.0,29.86,WSW,238,0.0,0.0,76,0.00,,,0.01,weatherlink.com 1.10,2013-06-18 01:40:00,
2013-06-17 20:55:00,74.8,67.0,29.87,WSW,238,0.0,0.0,77,0.00,,,0.01,weatherlink.com 1.10,2013-06-18 01:55:00,
2013-06-17 21:10:00,74.1,68.0,29.86,WSW,238,0.0,1.0,80,0.00,,,0.01,weatherlink.com 1.10,2013-06-18 02:10:00,
2013-06-17 21:25:00,74.3,68.0,29.86,SW,219,2.0,3.0,80,0.00,,,0.01,weatherlink.com 1.10,2013-06-18 02:25:00,
2013-06-17 21:40:00,74.1,67.0,29.87,WSW,247,0.0,2.0,79,0.00,,,0.01,weatherlink.com 1.10,2013-06-18 02:40:00,
2013-06-17 21:55:00,72.9,66.0,29.88,WSW,247,0.0,0.0,80,0.00,,,0.01,weatherlink.com 1.10,2013-06-18 02:55:00,
2013-06-17 22:10:00,72.1,68.0,29.88,WSW,238,2.0,6.0,86,0.00,,,0.01,weatherlink.com 1.10,2013-06-18 03:10:00,
2013-06-17 22:25:00,72.7,68.0,29.88,SSW,204,3.0,7.0,86,0.00,,,0.01,weatherlink.com 1.10,2013-06-18 03:25:00,
2013-06-17 22:40:00,71.6,68.0,29.88,SSW,194,4.0,8.0,89,0.00,,,0.01,weatherlink.com 1.10,2013-06-18 03:40:00,
2013-06-17 22:55:00,71.2,68.0,29.88,WSW,247,4.0,7.0,90,0.00,,,0.01,weatherlink.com 1.10,2013-06-18 03:55:00,
2013-06-17 23:10:00,71.2,69.0,29.88,WSW,245,1.0,9.0,91,0.00,,,0.01,weatherlink.com 1.10,2013-06-18 04:10:00,
2013-06-17 23:25:00,70.9,68.0,29.87,SW,219,4.0,6.0,91,0.00,,,0.01,weatherlink.com 1.10,2013-06-18 04:25:00,
2013-06-17 23:40:00,70.6,68.0,29.88,SW,219,2.0,5.0,92,0.00,,,0.01,weatherlink.com 1.10,2013-06-18 04:40:00,
2013-06-17 23:55:00,70.3,68.0,29.87,SSW,205,3.0,6.0,92,0.00,,,0.01,weatherlink.com 1.10,2013-06-18 04:55:00,